.
WxDataArchive / Data Records for 2010-10-21
2010-10-20 October 2010 2010-10-22

Data Records for Thursday, 21 October 2010

Time	Temp	Chill	HIndex	Humid	Dewpt	 Wind 	HiWind	WindDir	Rain 	Barom 
-----	----	-----	------	-----	-----	------	------	-------	-----	----- 
00:00	60.9	60.9	60.9	35	33.1	4	8	270	0.00	29.611 
00:05	60.7	60.7	60.7	35	32.9	4	7	270	0.00	29.611 
00:10	60.5	60.5	60.5	36	33.4	3	7	248	0.00	29.611 
00:15	60.4	60.4	60.4	36	33.3	4	10	270	0.00	29.642 
00:20	60.2	60.2	60.2	36	33.1	4	7	270	0.00	29.642 
00:25	60.1	60.1	60.1	41	36.3	3	9	270	0.00	29.642 
00:30	58.3	58.3	58.3	55	42.2	2	7	292	0.00	29.673 
00:35	56.2	56.2	56.2	61	42.9	2	5	315	0.00	29.673 
00:40	54.8	54.8	54.8	64	42.9	1	4	292	0.00	29.673 
00:45	53.9	53.9	53.9	66	42.8	1	4	338	0.00	29.692 
00:50	53.2	53.2	53.2	68	42.9	2	6	338	0.00	29.692 
00:55	52.6	52.6	52.6	69	42.7	2	5	0	0.00	29.692 
01:00	52.2	52.2	52.2	69	42.3	1	4	0	0.00	29.705 
01:05	51.7	51.7	51.7	70	42.2	1	4	315	0.00	29.705 
01:10	51.6	51.6	51.6	71	42.5	1	5	270	0.00	29.705 
01:15	51.4	51.4	51.4	71	42.3	1	3	270	0.00	29.713 
01:20	51.1	51.1	51.1	72	42.4	0	4	270	0.00	29.713 
01:25	51.1	51.1	51.1	71	42.0	0	2	270	0.00	29.713 
01:30	51.0	51.0	51.0	72	42.3	0	2	270	0.00	29.715 
01:35	51.0	51.0	51.0	71	41.9	0	3	270	0.00	29.715 
01:40	50.8	50.8	50.8	71	41.7	0	2	270	0.00	29.715 
01:45	50.7	50.7	50.7	72	42.0	0	1	270	0.00	29.719 
01:50	50.7	50.7	50.7	72	42.0	0	1	270	0.00	29.719 
01:55	50.5	50.5	50.5	72	41.8	0	1	270	0.00	29.719 
02:00	50.4	50.4	50.4	72	41.7	0	1	270	0.00	29.723 
02:05	50.4	50.4	50.4	72	41.7	0	1	270	0.00	29.723 
02:10	50.4	50.4	50.4	72	41.7	0	1	248	0.00	29.723 
02:15	50.2	50.2	50.2	73	41.9	0	0	---	0.00	29.720 
02:20	50.1	50.1	50.1	73	41.8	0	1	248	0.00	29.720 
02:25	49.8	49.8	49.8	73	41.5	0	1	270	0.00	29.720 
02:30	49.6	49.6	49.6	73	41.3	0	0	---	0.00	29.716 
02:35	49.4	49.4	49.4	73	41.1	0	0	---	0.00	29.716 
02:40	49.1	49.1	49.1	74	41.2	0	0	---	0.00	29.716 
02:45	48.8	48.8	48.8	74	40.9	0	0	---	0.00	29.722 
02:50	48.3	48.3	48.3	75	40.7	0	0	---	0.00	29.722 
02:55	48.0	48.0	48.0	76	40.8	0	0	---	0.00	29.722 
03:00	47.6	47.6	47.6	77	40.8	0	0	---	0.00	29.724 
03:05	47.3	47.3	47.3	77	40.5	0	0	---	0.00	29.724 
03:10	47.0	47.0	47.0	78	40.5	0	0	---	0.00	29.724 
03:15	46.5	46.5	46.5	79	40.3	0	0	---	0.00	29.720 
03:20	46.1	46.1	46.1	79	40.0	0	0	---	0.00	29.720 
03:25	45.8	45.8	45.8	81	40.3	0	0	---	0.00	29.720 
03:30	45.4	45.4	45.4	81	39.9	0	0	---	0.00	29.720 
03:35	45.1	45.1	45.1	82	39.9	0	0	---	0.00	29.720 
03:40	44.8	44.8	44.8	83	40.0	0	0	---	0.00	29.720 
03:45	44.6	44.6	44.6	84	40.1	0	0	---	0.00	29.724 
03:50	44.3	44.3	44.3	84	39.8	0	0	---	0.00	29.724 
03:55	44.2	44.2	44.2	85	40.0	0	0	---	0.00	29.724 
04:00	44.1	44.1	44.1	85	39.9	0	0	---	0.00	29.727 
04:05	43.9	43.9	43.9	85	39.7	0	0	---	0.00	29.727 
04:10	43.6	43.6	43.6	86	39.7	0	0	---	0.00	29.727 
04:15	43.5	43.5	43.5	86	39.6	0	0	---	0.00	29.728 
04:20	43.5	43.5	43.5	87	39.9	0	0	---	0.00	29.728 
04:25	43.3	43.3	43.3	87	39.7	0	0	---	0.00	29.728 
04:30	43.3	43.3	43.3	88	40.0	0	0	---	0.00	29.729 
04:35	43.6	43.6	43.6	89	40.6	0	0	---	0.00	29.729 
04:40	43.6	43.6	43.6	89	40.6	0	0	---	0.00	29.729 
04:45	43.6	43.6	43.6	89	40.6	0	0	---	0.00	29.728 
04:50	43.6	43.6	43.6	89	40.6	0	0	---	0.00	29.728 
04:55	43.6	43.6	43.6	89	40.6	0	0	---	0.00	29.728 
05:00	43.6	43.6	43.6	89	40.6	0	0	---	0.00	29.729 
05:05	43.9	43.9	43.9	90	41.2	0	1	270	0.00	29.729 
05:10	44.2	44.2	44.2	89	41.2	0	1	270	0.00	29.729 
05:15	44.2	44.2	44.2	89	41.2	0	0	---	0.00	29.736 
05:20	44.2	44.2	44.2	89	41.2	0	1	270	0.00	29.736 
05:25	44.3	44.3	44.3	89	41.3	0	1	270	0.00	29.736 
05:30	44.5	44.5	44.5	89	41.5	0	1	248	0.00	29.743 
05:35	44.6	44.6	44.6	89	41.6	0	1	270	0.00	29.743 
05:40	44.6	44.6	44.6	88	41.3	0	1	270	0.00	29.743 
05:45	44.6	44.6	44.6	88	41.3	0	1	248	0.00	29.747 
05:50	44.6	44.6	44.6	88	41.3	0	1	270	0.00	29.747 
05:55	44.8	44.8	44.8	88	41.5	0	1	270	0.00	29.747 
06:00	44.9	44.9	44.9	88	41.6	0	1	270	0.00	29.751 
06:05	45.1	45.1	45.1	88	41.8	0	1	270	0.00	29.751 
06:10	44.9	44.9	44.9	87	41.3	0	1	270	0.00	29.751 
06:15	44.9	44.9	44.9	87	41.3	0	1	270	0.00	29.758 
06:20	44.9	44.9	44.9	87	41.3	0	1	270	0.00	29.758 
06:25	44.9	44.9	44.9	87	41.3	0	1	248	0.00	29.758 
06:30	44.8	44.8	44.8	87	41.2	0	0	---	0.00	29.762 
06:35	44.6	44.6	44.6	87	41.0	0	0	---	0.00	29.762 
06:40	44.6	44.6	44.6	87	41.0	0	0	---	0.00	29.762 
06:45	44.5	44.5	44.5	87	40.9	0	0	---	0.00	29.773 
06:50	44.5	44.5	44.5	87	40.9	0	0	---	0.00	29.773 
06:55	44.3	44.3	44.3	88	41.0	0	0	---	0.00	29.773 
07:00	44.3	44.3	44.3	88	41.0	0	0	---	0.00	29.778 
07:05	44.2	44.2	44.2	88	40.9	0	0	---	0.00	29.778 
07:10	44.2	44.2	44.2	88	40.9	0	0	---	0.00	29.778 
07:15	44.2	44.2	44.2	88	40.9	0	0	---	0.00	29.784 
07:20	44.2	44.2	44.2	88	40.9	0	0	---	0.00	29.784 
07:25	44.2	44.2	44.2	88	40.9	0	0	---	0.00	29.784 
07:30	44.1	44.1	44.1	88	40.8	0	1	270	0.00	29.787 
07:35	44.2	44.2	44.2	88	40.9	0	1	270	0.00	29.787 
07:40	44.2	44.2	44.2	88	40.9	0	2	270	0.00	29.787 
07:45	44.2	44.2	44.2	88	40.9	0	1	270	0.00	29.789 
07:50	44.2	44.2	44.2	87	40.6	0	1	270	0.00	29.789 
07:55	44.3	44.3	44.3	87	40.7	1	3	270	0.00	29.789 
08:00	44.3	44.3	44.3	87	40.7	0	2	270	0.00	29.793 
08:05	44.3	44.3	44.3	87	40.7	1	2	270	0.00	29.793 
08:10	44.3	44.3	44.3	86	40.4	1	3	270	0.00	29.793 
08:15	44.5	44.5	44.5	86	40.6	1	3	270	0.00	29.796 
08:20	44.5	44.5	44.5	85	40.3	1	4	270	0.00	29.796 
08:25	44.5	44.5	44.5	85	40.3	1	2	270	0.00	29.796 
08:30	44.5	44.5	44.5	84	40.0	1	2	270	0.00	29.798 
08:35	44.6	44.6	44.6	84	40.1	1	3	270	0.00	29.798 
08:40	44.6	44.6	44.6	84	40.1	1	2	270	0.00	29.798 
08:45	44.8	44.8	44.8	83	40.0	1	4	270	0.00	29.810 
08:50	45.1	45.1	45.1	83	40.3	1	3	270	0.00	29.810 
08:55	45.4	45.4	45.4	82	40.2	1	4	270	0.00	29.810 
09:00	45.7	45.7	45.7	81	40.2	1	3	270	0.00	29.811 
09:05	46.1	46.1	46.1	80	40.3	1	4	292	0.00	29.811 
09:10	46.4	46.4	46.4	79	40.2	1	3	292	0.00	29.811 
09:15	46.8	46.8	46.8	78	40.3	1	4	292	0.00	29.811 
09:20	47.1	47.1	47.1	77	40.3	2	5	292	0.00	29.811 
09:25	47.3	47.3	47.3	77	40.5	1	4	270	0.00	29.811 
09:30	47.6	47.6	47.6	76	40.4	2	6	270	0.00	29.818 
09:35	47.9	47.9	47.9	76	40.7	1	4	270	0.00	29.818 
09:40	48.0	48.0	48.0	74	40.1	2	5	315	0.00	29.818 
09:45	48.5	48.5	48.5	75	40.9	1	4	270	0.00	29.825 
09:50	48.8	48.8	48.8	74	40.9	2	4	292	0.00	29.825 
09:55	49.1	49.1	49.1	73	40.8	2	6	270	0.00	29.825 
10:00	49.2	49.2	49.2	73	40.9	2	6	270	0.00	29.824 
10:05	49.4	49.4	49.4	72	40.8	3	6	270	0.00	29.824 
10:10	49.6	49.6	49.6	71	40.6	2	5	270	0.00	29.824 
10:15	49.9	49.9	49.9	71	40.9	3	5	270	0.00	29.832 
10:20	50.2	50.2	50.2	70	40.8	3	7	270	0.00	29.832 
10:25	50.5	50.5	50.5	69	40.7	3	5	270	0.00	29.832 
10:30	51.0	51.0	51.0	68	40.8	3	6	270	0.00	29.830 
10:35	51.1	51.1	51.1	67	40.5	2	4	315	0.00	29.830 
10:40	51.4	51.4	51.4	66	40.4	2	6	270	0.00	29.830 
10:45	51.6	51.6	51.6	66	40.6	2	4	270	0.00	29.829 
10:50	52.2	52.2	52.2	64	40.4	2	4	270	0.00	29.829 
10:55	52.3	52.3	52.3	62	39.7	3	7	270	0.00	29.829 
11:00	52.3	52.3	52.3	61	39.3	2	6	315	0.00	29.833 
11:05	52.5	52.5	52.5	61	39.4	3	6	270	0.00	29.833 
11:10	52.6	52.6	52.6	57	37.8	3	8	270	0.00	29.833 
11:15	52.6	52.6	52.6	58	38.2	3	6	270	0.00	29.833 
11:20	53.2	53.2	53.2	57	38.4	3	6	292	0.00	29.833 
11:25	53.5	53.5	53.5	54	37.3	3	5	270	0.00	29.833 
11:30	53.6	53.6	53.6	54	37.4	3	6	270	0.00	29.834 
11:35	53.9	53.9	53.9	53	37.2	3	6	270	0.00	29.834 
11:40	53.8	53.8	53.8	51	36.1	3	7	270	0.00	29.834 
11:45	53.6	53.6	53.6	52	36.4	3	7	270	0.00	29.838 
11:50	52.9	52.9	52.9	54	36.7	3	6	270	0.00	29.838 
11:55	52.9	52.9	52.9	56	37.6	2	6	270	0.00	29.838 
12:00	53.5	53.5	53.5	52	36.3	2	6	292	0.00	29.840 
12:05	53.1	53.1	53.1	52	35.9	3	6	315	0.00	29.840 
12:10	53.1	53.1	53.1	51	35.5	2	9	270	0.00	29.840 
12:15	53.6	53.6	53.6	49	34.9	3	6	315	0.00	29.852 
12:20	54.5	54.5	54.5	47	34.7	4	9	270	0.00	29.852 
12:25	54.5	54.5	54.5	47	34.7	3	7	270	0.00	29.852 
12:30	53.3	53.3	53.3	43	31.4	4	9	270	0.00	29.859 
12:35	53.1	53.1	53.1	47	33.4	3	6	270	0.00	29.859 
12:40	54.2	54.2	54.2	47	34.4	1	6	292	0.00	29.859 
12:45	55.1	55.1	55.1	45	34.1	4	10	270	0.00	29.854 
12:50	54.7	54.7	54.7	44	33.2	3	6	315	0.00	29.854 
12:55	53.8	53.8	53.8	44	32.4	3	7	270	0.00	29.854 
13:00	54.4	54.4	54.4	42	31.8	4	7	270	0.00	29.864 
13:05	55.0	55.0	55.0	40	31.1	4	9	248	0.00	29.864 
13:10	55.9	55.9	55.9	39	31.3	2	5	270	0.00	29.864 
13:15	55.3	55.3	55.3	38	30.1	4	11	270	0.00	29.869 
13:20	54.8	54.8	54.8	41	31.6	4	8	270	0.00	29.869 
13:25	54.7	54.7	54.7	39	30.2	3	7	292	0.00	29.869 
13:30	54.4	54.4	54.4	40	30.6	3	7	270	0.00	29.876 
13:35	54.7	54.7	54.7	41	31.5	4	7	270	0.00	29.876 
13:40	54.7	54.7	54.7	42	32.1	2	10	315	0.00	29.876 
13:45	54.1	54.1	54.1	46	33.8	3	7	270	0.00	29.878 
13:50	53.5	53.5	53.5	47	33.8	3	6	315	0.00	29.878 
13:55	53.5	53.5	53.5	47	33.8	4	7	315	0.00	29.878 
14:00	53.1	53.1	53.1	49	34.4	4	7	292	0.00	29.893 
14:05	52.6	52.6	52.6	51	35.0	4	7	292	0.00	29.893 
14:10	52.9	52.9	52.9	50	34.8	3	9	270	0.00	29.893 
14:15	52.9	52.9	52.9	48	33.7	4	7	292	0.00	29.898 
14:20	52.8	52.8	52.8	50	34.7	5	11	270	0.00	29.898 
14:25	52.9	52.9	52.9	50	34.8	4	9	315	0.00	29.898 
14:30	53.3	53.3	53.3	51	35.6	3	10	270	0.00	29.896 
14:35	53.8	53.8	53.8	50	35.6	4	9	270	0.00	29.896 
14:40	52.8	52.8	52.8	51	35.2	4	8	270	0.00	29.896 
14:45	51.7	51.7	51.7	57	37.0	4	9	270	0.00	29.905 
14:50	50.1	50.1	50.1	65	38.8	3	9	315	0.00	29.905 
14:55	49.1	49.1	49.1	66	38.2	2	5	315	0.00	29.905 
15:00	48.8	48.8	48.8	66	38.0	2	7	315	0.00	29.915 
15:05	48.8	48.8	48.8	65	37.6	3	7	292	0.00	29.915 
15:10	49.2	49.2	49.2	64	37.5	2	6	315	0.00	29.915 
15:15	49.9	49.9	49.9	62	37.4	2	5	292	0.00	29.916 
15:20	50.5	50.5	50.5	59	36.7	3	7	315	0.00	29.916 
15:25	50.7	50.7	50.7	59	36.9	2	5	338	0.00	29.916 
15:30	50.4	50.4	50.4	58	36.2	2	6	315	0.00	29.917 
15:35	50.4	50.4	50.4	57	35.7	2	5	270	0.00	29.917 
15:40	50.7	50.7	50.7	55	35.1	3	7	338	0.00	29.917 
15:45	51.0	51.0	51.0	55	35.4	3	6	315	0.00	29.924 
15:50	51.3	51.3	51.3	55	35.7	2	5	292	0.00	29.924 
15:55	51.6	51.6	51.6	54	35.5	2	5	315	0.00	29.924 
16:00	52.0	52.0	52.0	53	35.4	2	7	315	0.00	29.917 
16:05	52.0	52.0	52.0	51	34.4	2	7	315	0.00	29.917 
16:10	51.7	51.7	51.7	51	34.2	2	4	270	0.00	29.917 
16:15	51.6	51.6	51.6	50	33.6	2	6	292	0.00	29.919 
16:20	51.6	51.6	51.6	50	33.6	2	5	315	0.00	29.919 
16:25	51.7	51.7	51.7	48	32.6	3	6	270	0.00	29.919 
16:30	51.7	51.7	51.7	48	32.6	3	7	315	0.00	29.928 
16:35	51.6	51.6	51.6	50	33.6	2	5	315	0.00	29.928 
16:40	51.4	51.4	51.4	50	33.4	2	5	315	0.00	29.928 
16:45	51.3	51.3	51.3	50	33.3	3	11	338	0.00	29.934 
16:50	50.8	50.8	50.8	49	32.3	3	9	338	0.00	29.934 
16:55	50.5	50.5	50.5	50	32.6	3	7	270	0.00	29.934 
17:00	50.5	50.5	50.5	50	32.6	2	8	315	0.00	29.940 
17:05	50.4	50.4	50.4	50	32.5	2	6	315	0.00	29.940 
17:10	50.2	50.2	50.2	50	32.3	2	6	338	0.00	29.940 
17:15	50.4	50.4	50.4	50	32.5	2	5	225	0.00	29.944 
17:20	50.4	50.4	50.4	48	31.5	3	6	270	0.00	29.944 
17:25	50.1	50.1	50.1	49	31.7	2	5	338	0.00	29.944 
17:30	50.1	50.1	50.1	50	32.2	1	4	315	0.00	29.948 
17:35	50.1	50.1	50.1	47	30.7	2	6	315	0.00	29.948 
17:40	49.8	49.8	49.8	45	29.3	3	7	315	0.00	29.948 
17:45	49.8	49.8	49.8	45	29.3	3	6	315	0.00	29.955 
17:50	49.6	49.6	49.6	44	28.6	3	6	270	0.00	29.955 
17:55	49.5	49.5	49.5	44	28.5	3	5	315	0.00	29.955 
18:00	49.2	49.2	49.2	44	28.2	2	6	315	0.00	29.964 
18:05	49.1	49.1	49.1	45	28.7	3	7	315	0.00	29.964 
18:10	48.9	48.9	48.9	46	29.0	3	7	270	0.00	29.964 
18:15	48.8	48.8	48.8	46	28.9	2	5	292	0.00	29.968 
18:20	48.8	48.8	48.8	46	28.9	2	6	315	0.00	29.968 
18:25	48.8	48.8	48.8	46	28.9	1	6	338	0.00	29.968 
18:30	48.8	48.8	48.8	47	29.5	1	4	338	0.00	29.970 
18:35	48.8	48.8	48.8	48	30.0	1	5	315	0.00	29.970 
18:40	48.8	48.8	48.8	48	30.0	2	6	315	0.00	29.970 
18:45	48.6	48.6	48.6	48	29.8	1	6	338	0.00	29.972 
18:50	48.6	48.6	48.6	47	29.3	2	6	292	0.00	29.972 
18:55	48.3	48.3	48.3	48	29.5	2	5	270	0.00	29.972 
19:00	48.2	48.2	48.2	48	29.4	2	7	270	0.00	29.981 
19:05	48.2	48.2	48.2	48	29.4	2	5	315	0.00	29.981 
19:10	48.2	48.2	48.2	48	29.4	1	4	315	0.00	29.981 
19:15	48.0	48.0	48.0	49	29.8	1	3	315	0.00	29.984 
19:20	48.0	48.0	48.0	48	29.3	1	4	270	0.00	29.984 
19:25	48.0	48.0	48.0	48	29.3	1	5	270	0.00	29.984 
19:30	48.0	48.0	48.0	48	29.3	1	2	315	0.00	29.993 
19:35	47.9	47.9	47.9	47	28.7	1	6	315	0.00	29.993 
19:40	47.9	47.9	47.9	48	29.2	1	3	270	0.00	29.993 
19:45	47.7	47.7	47.7	48	29.0	2	4	292	0.00	29.998 
19:50	47.4	47.4	47.4	48	28.7	0	3	315	0.00	29.998 
19:55	47.1	47.1	47.1	49	28.9	0	2	315	0.00	29.998 
20:00	46.8	46.8	46.8	50	29.2	0	1	315	0.00	30.003 
20:05	46.5	46.5	46.5	50	28.9	0	1	315	0.00	30.003 
20:10	46.2	46.2	46.2	50	28.6	0	0	---	0.00	30.003 
20:15	46.0	46.0	46.0	51	28.9	0	0	---	0.00	30.006 
20:20	45.7	45.7	45.7	52	29.1	0	0	---	0.00	30.006 
20:25	45.5	45.5	45.5	52	28.9	0	1	315	0.00	30.006 
20:30	45.4	45.4	45.4	52	28.8	0	1	315	0.00	30.011 
20:35	45.4	45.4	45.4	52	28.8	0	0	---	0.00	30.011 
20:40	45.2	45.2	45.2	52	28.6	0	0	---	0.00	30.011 
20:45	44.9	44.9	44.9	53	28.8	0	0	---	0.00	30.015 
20:50	44.6	44.6	44.6	53	28.5	0	0	---	0.00	30.015 
20:55	44.3	44.3	44.3	54	28.7	0	0	---	0.00	30.015 
21:00	43.9	43.9	43.9	54	28.3	0	0	---	0.00	30.019 
21:05	43.5	43.5	43.5	55	28.4	0	0	---	0.00	30.019 
21:10	43.1	43.1	43.1	57	28.9	0	0	---	0.00	30.019 
21:15	42.6	42.6	42.6	58	28.9	0	0	---	0.00	30.018 
21:20	42.2	42.2	42.2	58	28.5	0	0	---	0.00	30.018 
21:25	41.6	41.6	41.6	59	28.3	0	0	---	0.00	30.018 
21:30	41.2	41.2	41.2	60	28.4	0	0	---	0.00	30.026 
21:35	40.8	40.8	40.8	61	28.4	0	0	---	0.00	30.026 
21:40	40.3	40.3	40.3	62	28.3	0	0	---	0.00	30.026 
21:45	39.8	39.8	39.8	63	28.2	0	0	---	0.00	30.034 
21:50	39.3	39.3	39.3	64	28.2	0	0	---	0.00	30.034 
21:55	39.1	39.1	39.1	65	28.3	0	0	---	0.00	30.034 
22:00	38.6	38.6	38.6	66	28.2	0	0	---	0.00	30.033 
22:05	38.2	38.2	38.2	68	28.6	0	0	---	0.00	30.033 
22:10	37.9	37.9	37.9	69	28.7	0	0	---	0.00	30.033 
22:15	37.5	37.5	37.5	70	28.6	0	0	---	0.00	30.034 
22:20	37.2	37.2	37.2	71	28.7	0	0	---	0.00	30.034 
22:25	37.0	37.0	37.0	72	28.8	0	0	---	0.00	30.034 
22:30	36.9	36.9	36.9	73	29.1	0	0	---	0.00	30.034 
22:35	36.8	36.8	36.8	73	29.0	0	0	---	0.00	30.034 
22:40	36.5	36.5	36.5	73	28.7	0	0	---	0.00	30.034 
22:45	36.3	36.3	36.3	74	28.8	0	0	---	0.00	30.034 
22:50	36.2	36.2	36.2	74	28.7	0	0	---	0.00	30.034 
22:55	36.0	36.0	36.0	75	28.9	0	0	---	0.00	30.034 
23:00	35.9	35.9	35.9	75	28.8	0	0	---	0.00	30.037 
23:05	35.8	35.8	35.8	76	29.0	0	0	---	0.00	30.037 
23:10	35.6	35.6	35.6	76	28.8	0	0	---	0.00	30.037 
23:15	35.5	35.5	35.5	76	28.7	0	0	---	0.00	30.038 
23:20	35.3	35.3	35.3	77	28.8	0	0	---	0.00	30.038 
23:25	35.0	35.0	35.0	77	28.5	0	0	---	0.00	30.038 
23:30	34.9	34.9	34.9	78	28.7	0	0	---	0.00	30.040 
23:35	34.7	34.7	34.7	78	28.6	0	0	---	0.00	30.040 
23:40	34.7	34.7	34.7	79	28.9	0	0	---	0.00	30.040 
23:45	34.6	34.6	34.6	79	28.8	0	0	---	0.00	30.046 
23:50	34.4	34.4	34.4	80	28.9	0	0	---	0.00	30.046 
23:55	34.4	34.4	34.4	80	28.9	0	0	---	0.00	30.046 

CoCoRaHS
IN-AL-39
A2 Web Hosting
Creative Commons License
GoDaddy
search engine by freefind advanced

loaded 2018-11-16 11:06:35 • last modified 2010-11-18 10:43:29
Privacy PolicyDisclaimer
• wx.awcolley.com is powered by PmWiki v.2002016 •
• all content (unless otherwise noted) © 2018 A W Colley